createdAt,value
2023-01-26T00:00:54.447Z,4.28
2023-01-26T00:03:22.372Z,4.30
2023-01-26T00:05:50.962Z,4.30
2023-01-26T00:08:20.702Z,4.35
2023-01-26T00:10:51.051Z,4.33
2023-01-26T00:13:20.255Z,4.37
2023-01-26T00:15:47.918Z,4.33
2023-01-26T00:18:15.844Z,4.34
2023-01-26T00:20:43.461Z,4.39
2023-01-26T00:23:12.046Z,4.42
2023-01-26T00:25:43.280Z,4.34
2023-01-26T00:28:12.295Z,4.50
2023-01-26T00:30:43.110Z,4.54
2023-01-26T00:33:13.128Z,4.56
2023-01-26T00:35:45.083Z,4.58
2023-01-26T00:38:14.548Z,4.65
2023-01-26T00:40:41.973Z,4.71
2023-01-26T00:43:09.401Z,4.74
2023-01-26T00:45:39.839Z,4.77
2023-01-26T00:48:07.764Z,4.74
2023-01-26T00:50:35.881Z,4.75
2023-01-26T00:53:03.537Z,4.76
2023-01-26T00:55:34.036Z,4.75
2023-01-26T00:58:06.558Z,4.72
2023-01-26T01:00:36.194Z,4.64
2023-01-26T01:03:03.767Z,4.55
2023-01-26T01:05:31.898Z,4.37
2023-01-26T01:07:59.600Z,4.27
2023-01-26T01:10:30.076Z,4.27
2023-01-26T01:12:57.707Z,4.15
2023-01-26T01:15:26.356Z,4.08
2023-01-26T01:17:53.744Z,4.02
2023-01-26T01:20:21.399Z,3.84
2023-01-26T01:22:48.766Z,3.81
2023-01-26T01:25:16.347Z,3.80
2023-01-26T01:27:43.818Z,3.74
2023-01-26T01:30:12.382Z,3.69
2023-01-26T01:32:40.508Z,3.63
2023-01-26T01:35:08.398Z,3.64
2023-01-26T01:37:39.965Z,3.62
2023-01-26T01:40:13.472Z,3.55
2023-01-26T01:42:48.007Z,3.55
2023-01-26T01:45:27.622Z,3.53
2023-01-26T01:47:56.397Z,3.47
2023-01-26T01:50:24.656Z,3.33
2023-01-26T01:52:54.454Z,3.20
2023-01-26T01:55:21.842Z,3.25
2023-01-26T01:57:52.929Z,3.22
2023-01-26T02:00:24.175Z,3.26
2023-01-26T02:03:13.663Z,3.26
2023-01-26T02:06:02.999Z,3.28
2023-01-26T02:08:36.173Z,3.09
2023-01-26T02:11:10.361Z,3.17
2023-01-26T02:13:38.387Z,3.17
2023-01-26T02:16:13.175Z,3.09
2023-01-26T02:18:41.849Z,3.06
2023-01-26T02:21:11.182Z,3.02
2023-01-26T02:24:00.463Z,3.03
2023-01-26T02:26:30.805Z,2.93
2023-01-26T02:29:04.128Z,2.98
2023-01-26T02:31:36.974Z,2.96
2023-01-26T02:34:06.605Z,2.91
2023-01-26T02:36:35.056Z,2.89
2023-01-26T02:39:27.198Z,2.94
2023-01-26T02:42:14.285Z,2.81
2023-01-26T02:44:42.218Z,2.85
2023-01-26T02:47:17.525Z,2.86
2023-01-26T02:49:50.903Z,2.82
2023-01-26T02:52:23.718Z,2.82
2023-01-26T02:55:09.803Z,2.76
2023-01-26T02:57:38.110Z,2.73
2023-01-26T03:00:08.995Z,2.58
2023-01-26T03:02:38.087Z,2.68
2023-01-26T03:05:08.242Z,2.61
2023-01-26T03:07:35.998Z,2.68
2023-01-26T03:10:04.727Z,2.65
2023-01-26T03:12:32.376Z,2.63
2023-01-26T03:15:19.362Z,2.62
2023-01-26T03:17:50.075Z,2.60
2023-01-26T03:20:36.143Z,2.53
2023-01-26T03:23:22.318Z,2.48
2023-01-26T03:26:08.265Z,2.51
2023-01-26T03:28:35.673Z,2.51
2023-01-26T03:31:05.859Z,2.54
2023-01-26T03:33:34.538Z,2.54
2023-01-26T03:36:01.929Z,2.50
2023-01-26T03:38:32.406Z,2.53
2023-01-26T03:41:18.506Z,2.45
2023-01-26T03:44:05.500Z,2.48
2023-01-26T03:46:51.634Z,2.42
2023-01-26T03:49:39.730Z,2.42
2023-01-26T03:52:27.118Z,2.38
2023-01-26T03:55:18.683Z,2.44
2023-01-26T03:57:47.651Z,2.44
2023-01-26T04:00:30.458Z,2.49
2023-01-26T04:03:16.705Z,2.42
2023-01-26T04:06:15.766Z,2.45
2023-01-26T04:08:49.657Z,2.42
2023-01-26T04:11:27.265Z,2.44
2023-01-26T04:14:18.822Z,2.40
2023-01-26T04:17:11.823Z,2.37
2023-01-26T04:19:57.843Z,2.34
2023-01-26T04:22:25.381Z,2.31
2023-01-26T04:24:53.668Z,2.26
2023-01-26T04:27:21.200Z,2.20
2023-01-26T04:29:48.638Z,2.23
2023-01-26T04:32:17.113Z,2.22
2023-01-26T04:34:44.645Z,2.16
2023-01-26T04:37:13.195Z,2.17
2023-01-26T04:39:41.648Z,2.13
2023-01-26T04:42:09.050Z,2.01
2023-01-26T04:44:42.653Z,2.11
2023-01-26T04:47:11.510Z,2.11
2023-01-26T04:49:40.400Z,2.06
2023-01-26T04:52:09.110Z,2.02
2023-01-26T04:54:37.642Z,2.00
2023-01-26T04:57:06.081Z,1.94
2023-01-26T04:59:33.481Z,1.91
2023-01-26T05:02:02.530Z,1.86
2023-01-26T05:04:30.194Z,1.91
2023-01-26T05:06:57.936Z,1.92
2023-01-26T05:09:26.500Z,1.90
2023-01-26T05:11:54.318Z,1.86
2023-01-26T05:14:22.835Z,1.91
2023-01-26T05:16:50.543Z,1.89
2023-01-26T05:19:17.927Z,1.89
2023-01-26T05:21:45.360Z,1.89
2023-01-26T05:24:18.904Z,1.86
2023-01-26T05:26:46.531Z,1.83
2023-01-26T05:29:14.246Z,1.84
2023-01-26T05:31:42.549Z,1.74
2023-01-26T05:34:09.858Z,1.85
2023-01-26T05:36:41.399Z,1.88
2023-01-26T05:39:11.707Z,1.80
2023-01-26T05:41:41.185Z,1.72
2023-01-26T05:44:10.422Z,1.84
2023-01-26T05:46:39.639Z,1.78
2023-01-26T05:49:07.511Z,1.80
2023-01-26T05:51:37.000Z,1.87
2023-01-26T05:54:05.083Z,1.88
2023-01-26T05:56:32.448Z,1.90
2023-01-26T05:59:01.895Z,1.85
2023-01-26T06:01:35.144Z,1.91
2023-01-26T06:04:06.732Z,1.87
2023-01-26T06:06:37.356Z,1.88
2023-01-26T06:09:05.006Z,1.81
2023-01-26T06:11:32.860Z,1.77
2023-01-26T06:14:01.619Z,1.76
2023-01-26T06:16:29.326Z,1.71
2023-01-26T06:18:57.840Z,1.77
2023-01-26T06:21:25.420Z,1.64
2023-01-26T06:23:55.181Z,1.70
2023-01-26T06:26:25.295Z,1.62
2023-01-26T06:28:53.770Z,1.60
2023-01-26T06:31:34.486Z,1.49
2023-01-26T06:34:04.135Z,1.52
2023-01-26T06:36:33.912Z,1.46
2023-01-26T06:39:01.531Z,1.46
2023-01-26T06:41:29.645Z,1.46
2023-01-26T06:43:58.060Z,1.50
2023-01-26T06:46:28.879Z,1.45
2023-01-26T06:48:56.445Z,1.49
2023-01-26T06:51:59.928Z,1.52
2023-01-26T06:54:27.570Z,1.49
2023-01-26T06:56:56.034Z,1.47
2023-01-26T06:59:23.657Z,1.47
2023-01-26T07:01:52.413Z,1.42
2023-01-26T07:04:19.954Z,1.42
2023-01-26T07:06:48.389Z,1.35
2023-01-26T07:09:15.955Z,1.33
2023-01-26T07:11:43.571Z,1.34
2023-01-26T07:14:10.969Z,1.27
2023-01-26T07:16:39.976Z,1.26
2023-01-26T07:19:08.420Z,1.31
2023-01-26T07:21:39.705Z,1.38
2023-01-26T07:24:09.988Z,1.36
2023-01-26T07:26:37.535Z,1.37
2023-01-26T07:29:12.485Z,1.35
2023-01-26T07:31:42.227Z,1.36
2023-01-26T07:34:11.016Z,1.35
2023-01-26T07:36:40.429Z,1.36
2023-01-26T07:39:08.625Z,1.34
2023-01-26T07:42:15.235Z,1.37
2023-01-26T07:44:46.531Z,1.37
2023-01-26T07:47:26.931Z,1.38
2023-01-26T07:49:54.971Z,1.28
2023-01-26T07:52:31.240Z,1.36
2023-01-26T07:55:17.939Z,1.39
2023-01-26T07:57:45.527Z,1.30
2023-01-26T08:00:21.057Z,1.32
2023-01-26T08:02:55.777Z,1.27
2023-01-26T08:05:24.758Z,1.29
2023-01-26T08:08:30.719Z,1.41
2023-01-26T08:14:46.851Z,1.42
2023-01-26T08:17:18.196Z,1.39
2023-01-26T08:19:51.121Z,1.35
2023-01-26T08:22:19.861Z,1.44
2023-01-26T08:24:47.455Z,1.60
2023-01-26T08:27:19.740Z,1.70
2023-01-26T08:29:49.697Z,1.84
2023-01-26T08:32:18.516Z,1.90
2023-01-26T09:17:03.442Z,3.77
2023-01-26T09:19:35.559Z,3.96
2023-01-26T09:22:03.533Z,4.13
2023-01-26T09:24:31.242Z,4.28
2023-01-26T09:27:09.156Z,4.51
2023-01-26T09:29:44.015Z,4.73
2023-01-26T09:32:20.954Z,5.16
2023-01-26T09:34:52.292Z,5.81
2023-01-26T09:37:24.137Z,6.34
2023-01-26T09:39:57.737Z,6.83
2023-01-26T09:43:05.946Z,7.26
2023-01-26T09:46:06.086Z,7.64
2023-01-26T09:48:36.900Z,7.97
2023-01-26T09:51:15.887Z,8.20
2023-01-26T09:54:19.378Z,8.47
2023-01-26T09:56:56.953Z,8.66
2023-01-26T09:59:58.561Z,8.88
2023-01-26T10:02:53.365Z,9.08
2023-01-26T10:05:29.755Z,9.23
2023-01-26T10:08:10.737Z,9.43
2023-01-26T10:10:42.337Z,9.56
2023-01-26T10:13:16.533Z,9.64
2023-01-26T10:15:48.101Z,9.76
2023-01-26T10:18:22.819Z,9.85
2023-01-26T10:21:02.786Z,9.96
2023-01-26T10:23:37.320Z,10.07
2023-01-26T10:26:16.285Z,10.22
2023-01-26T10:28:46.873Z,10.26
2023-01-26T10:31:20.336Z,10.30
2023-01-26T10:34:23.440Z,10.39
2023-01-26T10:36:52.062Z,10.37
2023-01-26T10:39:29.481Z,10.49
2023-01-26T10:42:04.486Z,10.41
2023-01-26T10:44:36.302Z,10.38
2023-01-26T10:47:15.983Z,10.54
2023-01-26T10:50:26.261Z,10.67
2023-01-26T10:53:06.484Z,10.81
2023-01-26T10:55:39.212Z,10.85
2023-01-26T10:58:09.052Z,10.97
2023-01-26T11:00:37.560Z,11.00
2023-01-26T11:03:25.966Z,10.97
2023-01-26T11:06:13.471Z,11.06
2023-01-26T11:08:41.233Z,11.00
2023-01-26T11:11:30.641Z,11.13
2023-01-26T11:14:17.682Z,11.21
2023-01-26T11:17:15.668Z,11.25
2023-01-26T11:19:57.208Z,11.39
2023-01-26T11:22:43.797Z,11.55
2023-01-26T11:25:51.556Z,11.80
2023-01-26T11:28:41.286Z,12.01
2023-01-26T11:31:25.516Z,12.26
2023-01-26T11:34:05.984Z,12.39
2023-01-26T11:36:36.238Z,12.59
2023-01-26T11:39:17.470Z,12.75
2023-01-26T11:42:02.300Z,12.72
2023-01-26T11:44:47.686Z,12.80
2023-01-26T11:47:33.775Z,12.92
2023-01-26T11:50:37.118Z,12.93
2023-01-26T11:53:31.686Z,12.94
2023-01-26T11:56:03.751Z,12.90
2023-01-26T11:58:55.636Z,12.83
2023-01-26T12:01:38.443Z,12.72
2023-01-26T12:04:19.042Z,12.68
2023-01-26T12:06:48.463Z,12.64
2023-01-26T12:09:23.549Z,12.73
2023-01-26T12:11:56.005Z,12.83
2023-01-26T12:14:32.250Z,12.79
2023-01-26T12:17:36.849Z,12.78
2023-01-26T12:20:25.343Z,12.79
2023-01-26T12:23:03.622Z,12.74
2023-01-26T12:25:49.948Z,12.75
2023-01-26T12:28:41.163Z,12.74
2023-01-26T12:31:17.352Z,12.79
2023-01-26T12:33:54.073Z,12.74
2023-01-26T12:36:33.570Z,12.82
2023-01-26T12:39:17.233Z,12.95
2023-01-26T12:42:10.102Z,13.27
2023-01-26T12:45:02.362Z,13.70
2023-01-26T12:47:36.013Z,13.94
2023-01-26T12:50:41.579Z,14.21
2023-01-26T12:53:32.589Z,14.35
2023-01-26T12:56:20.128Z,14.50
2023-01-26T12:58:50.816Z,14.63
2023-01-26T13:01:21.311Z,14.50
2023-01-26T13:04:09.542Z,14.23
2023-01-26T13:06:37.150Z,14.18
2023-01-26T13:09:17.237Z,14.22
2023-01-26T13:11:59.523Z,14.18
2023-01-26T13:14:38.230Z,14.23
2023-01-26T13:17:15.988Z,14.52
2023-01-26T13:19:43.948Z,14.63
2023-01-26T13:22:24.091Z,14.56
2023-01-26T13:25:28.266Z,14.59
2023-01-26T13:27:57.550Z,14.55
2023-01-26T13:30:26.084Z,14.41
2023-01-26T13:33:28.788Z,14.19
2023-01-26T13:35:58.608Z,13.98
2023-01-26T13:38:35.396Z,13.74
2023-01-26T13:41:03.754Z,13.64
2023-01-26T13:43:44.392Z,13.60
2023-01-26T13:46:34.002Z,13.58
2023-01-26T13:49:02.303Z,13.58
2023-01-26T13:51:34.569Z,13.59
2023-01-26T13:54:17.918Z,13.61
2023-01-26T13:57:06.833Z,13.67
2023-01-26T13:59:53.045Z,13.64
2023-01-26T14:02:28.018Z,13.57
2023-01-26T14:04:58.540Z,13.53
2023-01-26T14:07:57.400Z,13.59
2023-01-26T14:10:27.723Z,13.55
2023-01-26T14:12:59.317Z,13.44
2023-01-26T14:15:30.309Z,13.41
2023-01-26T14:18:04.095Z,13.20
2023-01-26T14:20:34.324Z,12.98
2023-01-26T14:23:14.963Z,12.88
2023-01-26T14:25:47.410Z,12.63
2023-01-26T14:28:18.339Z,12.55
2023-01-26T14:30:51.380Z,12.50
2023-01-26T14:33:20.232Z,12.44
2023-01-26T14:35:59.396Z,12.48
2023-01-26T14:38:29.483Z,12.48
2023-01-26T14:41:00.339Z,12.48
2023-01-26T14:43:29.091Z,12.46
2023-01-26T14:46:18.031Z,12.43
2023-01-26T14:48:54.331Z,12.49
2023-01-26T14:51:27.171Z,12.57
2023-01-26T14:54:02.525Z,12.83
2023-01-26T14:56:41.175Z,12.98
2023-01-26T14:59:15.364Z,13.02
2023-01-26T15:01:43.486Z,13.11
2023-01-26T15:04:32.470Z,13.26
2023-01-26T15:07:23.922Z,13.29
2023-01-26T15:09:57.449Z,13.30
2023-01-26T15:12:27.765Z,13.24
2023-01-26T15:14:59.254Z,13.27
2023-01-26T15:17:42.513Z,13.30
2023-01-26T15:22:57.930Z,13.37
2023-01-26T15:25:27.587Z,13.42
2023-01-26T15:27:59.346Z,13.45
2023-01-26T15:30:35.573Z,13.45
2023-01-26T15:33:06.369Z,13.59
2023-01-26T15:35:35.228Z,13.66
2023-01-26T15:38:07.338Z,13.77
2023-01-26T15:40:37.214Z,13.76
2023-01-26T15:43:18.487Z,13.68
2023-01-26T15:45:49.049Z,13.63
2023-01-26T15:48:16.789Z,13.60
2023-01-26T15:50:50.841Z,13.66
2023-01-26T15:53:24.689Z,13.66
2023-01-26T15:55:59.258Z,13.75
2023-01-26T15:58:27.585Z,13.60
2023-01-26T16:00:56.404Z,13.44
2023-01-26T16:03:27.876Z,13.56
2023-01-26T16:05:58.371Z,13.50
2023-01-26T16:08:37.439Z,13.33
2023-01-26T16:11:06.900Z,13.20
2023-01-26T16:13:34.637Z,13.11
2023-01-26T16:16:02.693Z,13.13
2023-01-26T16:18:31.954Z,13.05
2023-01-26T16:21:01.293Z,13.04
2023-01-26T16:23:42.377Z,12.91
2023-01-26T16:26:15.688Z,12.84
2023-01-26T16:28:44.421Z,12.86
2023-01-26T16:31:14.492Z,12.75
2023-01-26T16:33:47.768Z,12.67
2023-01-26T16:36:17.235Z,12.57
2023-01-26T16:38:45.421Z,12.68
2023-01-26T16:41:26.732Z,12.62
2023-01-26T16:43:57.332Z,12.61
2023-01-26T16:46:55.332Z,12.58
2023-01-26T16:49:26.812Z,12.48
2023-01-26T16:51:54.594Z,12.47
2023-01-26T16:54:32.252Z,12.42
2023-01-26T16:57:07.972Z,12.42
2023-01-26T16:59:35.411Z,12.38
2023-01-26T17:02:31.249Z,12.44
2023-01-26T17:04:59.493Z,12.33
2023-01-26T17:07:28.939Z,12.30
2023-01-26T17:09:57.693Z,12.24
2023-01-26T17:12:26.135Z,12.24
2023-01-26T17:14:56.085Z,12.07
2023-01-26T17:17:25.052Z,12.08
2023-01-26T17:20:17.679Z,12.06
2023-01-26T17:22:46.337Z,11.99
2023-01-26T17:25:16.704Z,11.95
2023-01-26T17:27:46.731Z,11.85
2023-01-26T17:30:14.676Z,11.84
2023-01-26T17:32:51.294Z,11.76
2023-01-26T17:35:19.214Z,11.63
2023-01-26T17:37:51.491Z,11.52
2023-01-26T17:40:19.559Z,11.45
2023-01-26T17:42:51.191Z,11.26
2023-01-26T17:45:20.273Z,11.33
2023-01-26T17:47:47.779Z,11.22
2023-01-26T17:50:15.592Z,11.11
2023-01-26T17:52:43.112Z,10.96
2023-01-26T17:55:11.030Z,11.00
2023-01-26T17:57:39.872Z,10.98
2023-01-26T18:00:08.072Z,10.88
2023-01-26T18:02:38.176Z,10.78
2023-01-26T18:05:11.420Z,10.72
2023-01-26T18:07:40.136Z,10.62
2023-01-26T18:10:08.503Z,10.54
2023-01-26T18:12:38.978Z,10.49
2023-01-26T18:15:10.894Z,10.44
2023-01-26T18:17:39.033Z,10.44
2023-01-26T18:20:09.792Z,10.34
2023-01-26T18:22:37.310Z,10.35
2023-01-26T18:25:05.916Z,10.45
2023-01-26T18:27:33.453Z,10.35
2023-01-26T18:30:02.854Z,10.31
2023-01-26T18:32:30.392Z,10.21
2023-01-26T18:35:03.296Z,10.19
2023-01-26T18:37:38.193Z,10.10
2023-01-26T18:40:13.377Z,10.07
2023-01-26T18:42:40.952Z,10.01
2023-01-26T18:45:10.126Z,10.00
2023-01-26T18:47:42.512Z,10.00
2023-01-26T18:50:11.313Z,9.94
2023-01-26T18:52:39.253Z,9.89
2023-01-26T18:55:13.464Z,9.86
2023-01-26T18:57:41.203Z,9.83
2023-01-26T19:00:09.614Z,9.73
2023-01-26T19:02:44.250Z,9.73
2023-01-26T19:05:16.233Z,9.66
2023-01-26T19:07:44.591Z,9.65
2023-01-26T19:10:14.433Z,9.60
2023-01-26T19:12:51.355Z,9.57
2023-01-26T19:15:19.559Z,9.46
2023-01-26T19:17:48.459Z,9.51
2023-01-26T19:20:18.515Z,9.51
2023-01-26T19:22:54.276Z,9.50
2023-01-26T19:25:26.415Z,9.47
2023-01-26T19:28:06.295Z,9.42
2023-01-26T19:30:34.455Z,9.46
2023-01-26T19:33:22.175Z,9.34
2023-01-26T19:35:52.683Z,9.35
2023-01-26T19:38:22.452Z,9.40
2023-01-26T19:40:50.794Z,9.40
2023-01-26T19:43:19.773Z,9.36
2023-01-26T19:46:11.444Z,9.39
2023-01-26T19:48:41.392Z,9.43
2023-01-26T19:51:13.353Z,9.56
2023-01-26T19:53:43.913Z,9.54
2023-01-26T19:56:22.267Z,9.55
2023-01-26T19:59:06.895Z,9.58
2023-01-26T20:01:39.486Z,9.55
2023-01-26T20:04:11.134Z,9.54
2023-01-26T20:06:51.573Z,9.54
2023-01-26T20:15:53.184Z,9.64
2023-01-26T20:25:00.711Z,9.64
2023-01-26T20:27:50.535Z,9.56
2023-01-26T20:33:09.214Z,9.47
2023-01-26T20:35:37.392Z,9.47
2023-01-26T20:38:06.656Z,9.44
2023-01-26T20:40:35.372Z,9.40
2023-01-26T20:43:03.881Z,9.40
2023-01-26T20:45:57.235Z,9.43
2023-01-26T20:48:53.907Z,9.43
2023-01-26T20:52:15.884Z,9.43
2023-01-26T20:55:03.000Z,9.42
2023-01-26T20:57:48.913Z,9.35
2023-01-26T21:00:50.855Z,9.38
2023-01-26T21:16:07.536Z,9.10
2023-01-26T21:24:59.686Z,9.00
2023-01-26T21:27:46.133Z,8.93
2023-01-26T21:30:31.448Z,8.86
2023-01-26T21:33:26.289Z,8.70
2023-01-26T21:36:39.323Z,8.60
2023-01-26T21:39:27.723Z,8.40
2023-01-26T21:42:12.573Z,8.35
2023-01-26T21:45:09.744Z,8.23
2023-01-26T21:48:12.193Z,8.22
2023-01-26T21:51:14.352Z,8.06
2023-01-26T21:54:12.072Z,8.10
2023-01-26T21:56:56.931Z,8.03
2023-01-26T22:02:46.033Z,7.94
2023-01-26T22:09:17.974Z,7.90
2023-01-26T22:12:11.869Z,7.95
2023-01-26T22:15:22.214Z,7.90
2023-01-26T22:18:07.272Z,7.86
2023-01-26T22:23:50.406Z,7.77
2023-01-26T22:30:14.577Z,7.62
2023-01-26T22:33:10.568Z,7.59
2023-01-26T22:36:08.601Z,7.41
2023-01-26T22:41:55.293Z,7.49
2023-01-26T22:44:24.423Z,7.45
2023-01-26T22:46:53.072Z,7.50
2023-01-26T22:49:20.494Z,7.48
2023-01-26T22:51:48.035Z,7.54
2023-01-26T22:54:15.816Z,7.46
2023-01-26T22:56:43.302Z,7.43
2023-01-26T22:59:11.398Z,7.41
2023-01-26T23:01:44.355Z,7.42
2023-01-26T23:04:12.630Z,7.39
2023-01-26T23:06:41.518Z,7.39
2023-01-26T23:09:09.359Z,7.36
2023-01-26T23:11:40.967Z,7.35
2023-01-26T23:14:08.572Z,7.35
2023-01-26T23:16:36.314Z,7.33
2023-01-26T23:19:04.236Z,7.24
2023-01-26T23:21:32.368Z,6.97
2023-01-26T23:23:59.953Z,6.99
2023-01-26T23:26:28.166Z,6.89
2023-01-26T23:28:56.445Z,6.84
2023-01-26T23:31:24.146Z,6.79
2023-01-26T23:33:52.104Z,6.83
2023-01-26T23:36:21.305Z,6.81
2023-01-26T23:38:49.080Z,6.79
2023-01-26T23:41:19.565Z,6.82
2023-01-26T23:43:48.240Z,6.81
2023-01-26T23:46:16.009Z,6.83
2023-01-26T23:48:45.598Z,6.81
2023-01-26T23:51:17.296Z,6.86
2023-01-26T23:53:45.297Z,6.72
2023-01-26T23:56:20.629Z,6.56
2023-01-26T23:58:48.191Z,6.45
